sensor_id;sensor_type;location;lat;lon;timestamp;pressure;altitude;pressure_sealevel;temperature;humidity
52469;BME280;38381;53.688;10.776;2023-12-07T00:00:14;101345.34;;;0.52;96.50
52469;BME280;38381;53.688;10.776;2023-12-07T00:05:14;101361.13;;;0.45;96.96
52469;BME280;38381;53.688;10.776;2023-12-07T00:10:15;101362.78;;;0.45;97.06
52469;BME280;38381;53.688;10.776;2023-12-07T00:15:15;101357.50;;;0.42;97.42
52469;BME280;38381;53.688;10.776;2023-12-07T00:20:16;101370.16;;;0.40;97.75
52469;BME280;38381;53.688;10.776;2023-12-07T00:25:19;101378.00;;;0.43;97.80
52469;BME280;38381;53.688;10.776;2023-12-07T00:30:19;101371.94;;;0.41;97.49
52469;BME280;38381;53.688;10.776;2023-12-07T00:35:21;101370.72;;;0.49;97.44
52469;BME280;38381;53.688;10.776;2023-12-07T00:40:23;101366.84;;;0.41;97.25
52469;BME280;38381;53.688;10.776;2023-12-07T00:45:23;101383.91;;;0.42;97.59
52469;BME280;38381;53.688;10.776;2023-12-07T00:50:24;101398.25;;;0.40;97.14
52469;BME280;38381;53.688;10.776;2023-12-07T00:55:24;101405.72;;;0.37;97.81
52469;BME280;38381;53.688;10.776;2023-12-07T01:00:25;101406.41;;;0.34;97.99
52469;BME280;38381;53.688;10.776;2023-12-07T01:05:25;101411.69;;;0.37;97.70
52469;BME280;38381;53.688;10.776;2023-12-07T01:10:26;101422.63;;;0.35;97.79
52469;BME280;38381;53.688;10.776;2023-12-07T01:15:26;101429.47;;;0.36;97.78
52469;BME280;38381;53.688;10.776;2023-12-07T01:20:27;101432.38;;;0.42;97.75
52469;BME280;38381;53.688;10.776;2023-12-07T01:25:28;101440.28;;;0.32;97.79
52469;BME280;38381;53.688;10.776;2023-12-07T01:30:28;101445.22;;;0.44;97.28
52469;BME280;38381;53.688;10.776;2023-12-07T01:35:29;101437.72;;;0.32;97.41
52469;BME280;38381;53.688;10.776;2023-12-07T01:40:29;101444.63;;;0.33;97.24
52469;BME280;38381;53.688;10.776;2023-12-07T01:45:29;101452.16;;;0.31;97.84
52469;BME280;38381;53.688;10.776;2023-12-07T01:50:30;101460.97;;;0.36;97.54
52469;BME280;38381;53.688;10.776;2023-12-07T01:55:31;101460.44;;;0.42;96.71
52469;BME280;38381;53.688;10.776;2023-12-07T02:00:33;101453.97;;;0.47;96.10
52469;BME280;38381;53.688;10.776;2023-12-07T02:05:34;101455.19;;;0.39;96.28
52469;BME280;38381;53.688;10.776;2023-12-07T02:10:35;101455.19;;;0.39;96.78
52469;BME280;38381;53.688;10.776;2023-12-07T02:15:35;101460.44;;;0.42;97.00
52469;BME280;38381;53.688;10.776;2023-12-07T02:20:55;101466.59;;;0.31;96.68
52469;BME280;38381;53.688;10.776;2023-12-07T02:26:31;101464.31;;;0.35;96.76
52469;BME280;38381;53.688;10.776;2023-12-07T02:31:38;101459.00;;;0.32;97.65
52469;BME280;38381;53.688;10.776;2023-12-07T02:36:39;101467.56;;;0.33;97.25
52469;BME280;38381;53.688;10.776;2023-12-07T02:41:41;101464.22;;;0.34;97.15
52469;BME280;38381;53.688;10.776;2023-12-07T02:46:43;101478.16;;;0.39;97.63
52469;BME280;38381;53.688;10.776;2023-12-07T02:51:44;101475.22;;;0.33;97.31
52469;BME280;38381;53.688;10.776;2023-12-07T02:56:45;101474.00;;;0.41;97.05
52469;BME280;38381;53.688;10.776;2023-12-07T03:01:45;101477.34;;;0.40;97.93
52469;BME280;38381;53.688;10.776;2023-12-07T03:06:46;101476.19;;;0.35;97.79
52469;BME280;38381;53.688;10.776;2023-12-07T03:11:46;101484.81;;;0.37;97.70
52469;BME280;38381;53.688;10.776;2023-12-07T03:16:46;101487.03;;;0.46;97.56
52469;BME280;38381;53.688;10.776;2023-12-07T03:21:47;101480.75;;;0.40;98.30
52469;BME280;38381;53.688;10.776;2023-12-07T03:26:47;101487.19;;;0.49;98.42
52469;BME280;38381;53.688;10.776;2023-12-07T03:31:48;101490.19;;;0.42;98.29
52469;BME280;38381;53.688;10.776;2023-12-07T03:36:48;101485.25;;;0.45;97.70
52469;BME280;38381;53.688;10.776;2023-12-07T03:41:49;101493.97;;;0.48;98.29
52469;BME280;38381;53.688;10.776;2023-12-07T03:46:49;101490.34;;;0.45;98.44
52469;BME280;38381;53.688;10.776;2023-12-07T03:51:50;101494.41;;;0.41;99.12
52469;BME280;38381;53.688;10.776;2023-12-07T03:56:50;101497.41;;;0.49;98.46
52469;BME280;38381;53.688;10.776;2023-12-07T04:01:51;101494.41;;;0.41;99.17
52469;BME280;38381;53.688;10.776;2023-12-07T04:06:51;101502.25;;;0.44;99.02
52469;BME280;38381;53.688;10.776;2023-12-07T04:11:52;101506.09;;;0.37;99.16
52469;BME280;38381;53.688;10.776;2023-12-07T04:16:52;101508.31;;;0.46;99.29
52469;BME280;38381;53.688;10.776;2023-12-07T04:21:53;101519.13;;;0.42;99.39
52469;BME280;38381;53.688;10.776;2023-12-07T04:26:53;101530.41;;;0.46;98.73
52469;BME280;38381;53.688;10.776;2023-12-07T04:31:53;101527.16;;;0.48;99.24
52469;BME280;38381;53.688;10.776;2023-12-07T04:36:54;101523.81;;;0.49;99.19
52469;BME280;38381;53.688;10.776;2023-12-07T04:41:54;101520.84;;;0.56;98.49
52469;BME280;38381;53.688;10.776;2023-12-07T04:46:55;101523.03;;;0.50;98.66
52469;BME280;38381;53.688;10.776;2023-12-07T04:51:55;101526.03;;;0.43;99.43
52469;BME280;38381;53.688;10.776;2023-12-07T04:56:55;101520.84;;;0.56;98.88
52469;BME280;38381;53.688;10.776;2023-12-07T05:01:56;101530.06;;;0.54;98.70
52469;BME280;38381;53.688;10.776;2023-12-07T05:06:56;101525.78;;;0.53;98.94
52469;BME280;38381;53.688;10.776;2023-12-07T05:11:57;101528.69;;;0.59;99.03
52469;BME280;38381;53.688;10.776;2023-12-07T05:16:58;101527.72;;;0.57;98.63
52469;BME280;38381;53.688;10.776;2023-12-07T05:22:33;101520.66;;;0.53;98.59
52469;BME280;38381;53.688;10.776;2023-12-07T05:27:33;101525.06;;;0.56;98.60
52469;BME280;38381;53.688;10.776;2023-12-07T05:32:33;101540.84;;;0.64;98.51
52469;BME280;38381;53.688;10.776;2023-12-07T05:37:34;101547.31;;;0.58;98.31
52469;BME280;38381;53.688;10.776;2023-12-07T05:42:34;101551.19;;;0.52;98.40
52469;BME280;38381;53.688;10.776;2023-12-07T05:47:35;101552.88;;;0.51;99.10
52469;BME280;38381;53.688;10.776;2023-12-07T05:52:36;101556.41;;;0.53;98.92
52469;BME280;38381;53.688;10.776;2023-12-07T05:57:36;101560.69;;;0.54;99.06
52469;BME280;38381;53.688;10.776;2023-12-07T06:02:37;101561.16;;;0.62;98.73
52469;BME280;38381;53.688;10.776;2023-12-07T06:07:37;101569.09;;;0.67;98.19
52469;BME280;38381;53.688;10.776;2023-12-07T06:12:38;101569.97;;;0.67;98.22
52469;BME280;38381;53.688;10.776;2023-12-07T06:17:39;101563.00;;;0.65;98.74
52469;BME280;38381;53.688;10.776;2023-12-07T06:22:39;101562.66;;;0.58;98.66
52469;BME280;38381;53.688;10.776;2023-12-07T06:27:39;101572.84;;;0.58;98.72
52469;BME280;38381;53.688;10.776;2023-12-07T06:32:40;101571.28;;;0.60;98.97
52469;BME280;38381;53.688;10.776;2023-12-07T06:37:40;101571.47;;;0.64;99.08
52469;BME280;38381;53.688;10.776;2023-12-07T06:42:42;101574.53;;;0.58;98.97
52469;BME280;38381;53.688;10.776;2023-12-07T06:47:42;101581.94;;;0.68;98.61
52469;BME280;38381;53.688;10.776;2023-12-07T06:52:43;101579.13;;;0.64;98.42
52469;BME280;38381;53.688;10.776;2023-12-07T06:57:44;101580.34;;;0.55;99.65
52469;BME280;38381;53.688;10.776;2023-12-07T07:02:45;101585.72;;;0.60;99.42
52469;BME280;38381;53.688;10.776;2023-12-07T07:07:45;101587.47;;;0.61;99.27
52469;BME280;38381;53.688;10.776;2023-12-07T07:12:46;101590.31;;;0.66;98.57
52469;BME280;38381;53.688;10.776;2023-12-07T07:17:46;101595.50;;;0.67;98.45
52469;BME280;38381;53.688;10.776;2023-12-07T07:22:47;101603.25;;;0.69;98.89
52469;BME280;38381;53.688;10.776;2023-12-07T07:27:48;101610.50;;;0.76;98.60
52469;BME280;38381;53.688;10.776;2023-12-07T07:32:48;101606.78;;;0.71;98.36
52469;BME280;38381;53.688;10.776;2023-12-07T07:37:49;101610.44;;;0.61;98.44
52469;BME280;38381;53.688;10.776;2023-12-07T07:42:49;101609.06;;;0.66;98.47
52469;BME280;38381;53.688;10.776;2023-12-07T07:47:49;101604.66;;;0.64;98.72
52469;BME280;38381;53.688;10.776;2023-12-07T07:52:50;101615.75;;;0.64;98.61
52469;BME280;38381;53.688;10.776;2023-12-07T07:57:56;101615.47;;;0.59;99.04
52469;BME280;38381;53.688;10.776;2023-12-07T08:02:57;101609.28;;;0.56;99.58
52469;BME280;38381;53.688;10.776;2023-12-07T08:08:00;101594.38;;;0.49;100.00
52469;BME280;38381;53.688;10.776;2023-12-07T08:13:00;101613.91;;;0.62;99.67
52469;BME280;38381;53.688;10.776;2023-12-07T08:18:03;101625.34;;;0.68;100.00
52469;BME280;38381;53.688;10.776;2023-12-07T08:23:03;101627.03;;;0.68;99.41
52469;BME280;38381;53.688;10.776;2023-12-07T08:28:03;101640.84;;;0.71;99.50
52469;BME280;38381;53.688;10.776;2023-12-07T08:33:04;101648.44;;;0.70;99.04
52469;BME280;38381;53.688;10.776;2023-12-07T08:38:04;101653.44;;;0.68;99.15
52469;BME280;38381;53.688;10.776;2023-12-07T08:43:06;101650.59;;;0.64;99.88
52469;BME280;38381;53.688;10.776;2023-12-07T08:48:06;101663.63;;;0.68;99.99
52469;BME280;38381;53.688;10.776;2023-12-07T08:53:07;101668.31;;;0.75;99.73
52469;BME280;38381;53.688;10.776;2023-12-07T08:58:07;101673.13;;;0.84;98.83
52469;BME280;38381;53.688;10.776;2023-12-07T09:03:08;101676.19;;;0.78;98.91
52469;BME280;38381;53.688;10.776;2023-12-07T09:08:08;101680.41;;;0.78;99.12
52469;BME280;38381;53.688;10.776;2023-12-07T09:13:09;101683.84;;;0.65;99.63
52469;BME280;38381;53.688;10.776;2023-12-07T09:18:09;101680.56;;;0.81;99.28
52469;BME280;38381;53.688;10.776;2023-12-07T09:23:13;101680.84;;;0.86;99.75
52469;BME280;38381;53.688;10.776;2023-12-07T09:28:15;101683.13;;;0.81;99.13
52469;BME280;38381;53.688;10.776;2023-12-07T09:33:15;101682.53;;;0.85;99.37
52469;BME280;38381;53.688;10.776;2023-12-07T09:38:17;101676.69;;;0.73;99.39
52469;BME280;38381;53.688;10.776;2023-12-07T09:43:17;101669.47;;;0.52;100.00
52469;BME280;38381;53.688;10.776;2023-12-07T09:48:18;101668.69;;;0.53;100.00
52469;BME280;38381;53.688;10.776;2023-12-07T09:53:19;101672.44;;;0.45;100.00
52469;BME280;38381;53.688;10.776;2023-12-07T09:58:20;101672.44;;;0.45;100.00
52469;BME280;38381;53.688;10.776;2023-12-07T10:03:21;101682.72;;;0.47;100.00
52469;BME280;38381;53.688;10.776;2023-12-07T10:08:29;101669.47;;;0.52;100.00
52469;BME280;38381;53.688;10.776;2023-12-07T10:13:31;101661.31;;;0.58;100.00
52469;BME280;38381;53.688;10.776;2023-12-07T10:18:32;101667.66;;;0.78;100.00
52469;BME280;38381;53.688;10.776;2023-12-07T10:23:33;101668.91;;;0.71;100.00
52469;BME280;38381;53.688;10.776;2023-12-07T10:28:35;101667.31;;;0.87;100.00
52469;BME280;38381;53.688;10.776;2023-12-07T10:33:38;101669.88;;;0.87;100.00
52469;BME280;38381;53.688;10.776;2023-12-07T10:38:38;101672.97;;;0.68;100.00
52469;BME280;38381;53.688;10.776;2023-12-07T10:43:48;101670.19;;;0.78;100.00
52469;BME280;38381;53.688;10.776;2023-12-07T10:49:00;101671.19;;;0.95;100.00
52469;BME280;38381;53.688;10.776;2023-12-07T10:54:06;101673.16;;;0.99;100.00
52469;BME280;38381;53.688;10.776;2023-12-07T10:59:10;101675.94;;;0.89;100.00
52469;BME280;38381;53.688;10.776;2023-12-07T11:04:12;101675.81;;;1.00;100.00
52469;BME280;38381;53.688;10.776;2023-12-07T11:09:22;101667.91;;;1.11;100.00
52469;BME280;38381;53.688;10.776;2023-12-07T11:14:25;101675.75;;;1.29;99.33
52469;BME280;38381;53.688;10.776;2023-12-07T11:28:38;101663.63;;;1.39;99.21
52469;BME280;38381;53.688;10.776;2023-12-07T11:33:41;101665.72;;;1.17;99.82
52469;BME280;38381;53.688;10.776;2023-12-07T11:44:12;101654.00;;;1.35;98.09
52469;BME280;38381;53.688;10.776;2023-12-07T11:49:13;101658.72;;;1.14;99.35
52469;BME280;38381;53.688;10.776;2023-12-07T11:54:14;101660.66;;;1.18;98.96
52469;BME280;38381;53.688;10.776;2023-12-07T11:59:17;101668.16;;;1.15;100.00
52469;BME280;38381;53.688;10.776;2023-12-07T12:04:18;101657.06;;;1.30;98.50
52469;BME280;38381;53.688;10.776;2023-12-07T12:09:18;101662.81;;;1.26;98.16
52469;BME280;38381;53.688;10.776;2023-12-07T12:14:19;101665.34;;;1.26;97.90
52469;BME280;38381;53.688;10.776;2023-12-07T12:19:21;101659.53;;;1.13;98.77
52469;BME280;38381;53.688;10.776;2023-12-07T12:24:22;101651.25;;;1.32;98.49
52469;BME280;38381;53.688;10.776;2023-12-07T12:29:22;101656.81;;;1.40;98.27
52469;BME280;38381;53.688;10.776;2023-12-07T12:34:23;101647.38;;;1.39;98.21
52469;BME280;38381;53.688;10.776;2023-12-07T12:39:28;101643.16;;;1.39;99.07
52469;BME280;38381;53.688;10.776;2023-12-07T12:44:31;101641.13;;;1.49;98.39
52469;BME280;38381;53.688;10.776;2023-12-07T12:49:35;101638.22;;;1.43;98.43
52469;BME280;38381;53.688;10.776;2023-12-07T12:54:36;101642.09;;;1.51;97.92
52469;BME280;38381;53.688;10.776;2023-12-07T12:59:37;101643.94;;;1.38;97.98
52469;BME280;38381;53.688;10.776;2023-12-07T13:04:37;101639.28;;;1.46;98.65
52469;BME280;38381;53.688;10.776;2023-12-07T13:09:39;101629.16;;;1.48;98.43
52469;BME280;38381;53.688;10.776;2023-12-07T13:14:39;101625.53;;;1.29;99.13
52469;BME280;38381;53.688;10.776;2023-12-07T13:19:40;101617.50;;;1.38;98.55
52469;BME280;38381;53.688;10.776;2023-12-07T13:24:40;101619.88;;;1.20;99.75
52469;BME280;38381;53.688;10.776;2023-12-07T13:29:41;101618.28;;;1.22;98.96
52469;BME280;38381;53.688;10.776;2023-12-07T13:34:41;101620.22;;;1.41;98.15
52469;BME280;38381;53.688;10.776;2023-12-07T13:39:45;101620.94;;;1.38;97.70
52469;BME280;38381;53.688;10.776;2023-12-07T13:44:45;101616.63;;;1.37;97.79
52469;BME280;38381;53.688;10.776;2023-12-07T13:49:45;101605.69;;;1.40;97.86
52469;BME280;38381;53.688;10.776;2023-12-07T13:54:46;101606.69;;;1.27;98.38
52469;BME280;38381;53.688;10.776;2023-12-07T13:59:46;101596.00;;;1.34;98.09
52469;BME280;38381;53.688;10.776;2023-12-07T14:04:47;101600.59;;;1.25;97.97
52469;BME280;38381;53.688;10.776;2023-12-07T14:09:52;101600.00;;;1.29;97.74
52469;BME280;38381;53.688;10.776;2023-12-07T14:14:52;101605.78;;;1.27;97.38
52469;BME280;38381;53.688;10.776;2023-12-07T14:19:55;101615.38;;;1.31;97.78
52469;BME280;38381;53.688;10.776;2023-12-07T14:24:55;101614.41;;;1.29;97.67
52469;BME280;38381;53.688;10.776;2023-12-07T14:29:56;101623.28;;;0.91;97.98
52469;BME280;38381;53.688;10.776;2023-12-07T14:34:56;101614.03;;;0.93;99.69
52469;BME280;38381;53.688;10.776;2023-12-07T14:39:57;101616.59;;;1.08;98.40
52469;BME280;38381;53.688;10.776;2023-12-07T14:44:57;101611.69;;;1.11;98.48
52469;BME280;38381;53.688;10.776;2023-12-07T14:49:58;101614.41;;;1.14;98.07
52469;BME280;38381;53.688;10.776;2023-12-07T14:54:58;101617.72;;;0.98;99.15
52469;BME280;38381;53.688;10.776;2023-12-07T14:59:59;101616.75;;;0.53;99.97
52469;BME280;38381;53.688;10.776;2023-12-07T15:04:59;101605.66;;;0.52;100.00
52469;BME280;38381;53.688;10.776;2023-12-07T15:10:00;101604.16;;;0.28;100.00
52469;BME280;38381;53.688;10.776;2023-12-07T15:15:01;101607.34;;;0.52;100.00
52469;BME280;38381;53.688;10.776;2023-12-07T15:20:01;101616.16;;;0.29;100.00
52469;BME280;38381;53.688;10.776;2023-12-07T15:25:03;101624.41;;;0.11;100.00
52469;BME280;38381;53.688;10.776;2023-12-07T15:30:07;101618.81;;;0.04;100.00
52469;BME280;38381;53.688;10.776;2023-12-07T15:35:13;101617.53;;;0.24;100.00
52469;BME280;38381;53.688;10.776;2023-12-07T15:40:13;101618.88;;;0.32;100.00
52469;BME280;38381;53.688;10.776;2023-12-07T15:45:13;101615.72;;;0.36;100.00
52469;BME280;38381;53.688;10.776;2023-12-07T15:50:15;101605.41;;;0.34;100.00
52469;BME280;38381;53.688;10.776;2023-12-07T15:55:15;101603.41;;;0.29;100.00
52469;BME280;38381;53.688;10.776;2023-12-07T16:00:16;101598.91;;;0.11;100.00
52469;BME280;38381;53.688;10.776;2023-12-07T16:05:17;101598.50;;;0.18;100.00
52469;BME280;38381;53.688;10.776;2023-12-07T16:10:19;101617.94;;;0.16;100.00
52469;BME280;38381;53.688;10.776;2023-12-07T16:15:20;101619.84;;;0.34;100.00
52469;BME280;38381;53.688;10.776;2023-12-07T16:20:20;101617.56;;;0.52;100.00
52469;BME280;38381;53.688;10.776;2023-12-07T16:25:21;101625.59;;;0.45;100.00
52469;BME280;38381;53.688;10.776;2023-12-07T16:30:21;101642.22;;;0.38;100.00
52469;BME280;38381;53.688;10.776;2023-12-07T16:35:22;101657.03;;;0.44;100.00
52469;BME280;38381;53.688;10.776;2023-12-07T16:40:22;101659.97;;;0.36;100.00
52469;BME280;38381;53.688;10.776;2023-12-07T16:45:23;101654.00;;;0.36;100.00
52469;BME280;38381;53.688;10.776;2023-12-07T16:50:23;101643.03;;;0.24;100.00
52469;BME280;38381;53.688;10.776;2023-12-07T16:55:24;101662.69;;;0.53;100.00
52469;BME280;38381;53.688;10.776;2023-12-07T17:00:25;101647.75;;;0.31;100.00
52469;BME280;38381;53.688;10.776;2023-12-07T17:05:26;101643.84;;;0.23;100.00
52469;BME280;38381;53.688;10.776;2023-12-07T17:10:26;101633.53;;;0.21;100.00
52469;BME280;38381;53.688;10.776;2023-12-07T17:15:27;101633.53;;;0.08;100.00
52469;BME280;38381;53.688;10.776;2023-12-07T17:20:27;101636.19;;;0.23;100.00
52469;BME280;38381;53.688;10.776;2023-12-07T17:25:28;101625.81;;;0.06;100.00
52469;BME280;38381;53.688;10.776;2023-12-07T17:30:28;101621.84;;;0.25;100.00
52469;BME280;38381;53.688;10.776;2023-12-07T17:35:28;101616.66;;;0.23;100.00
52469;BME280;38381;53.688;10.776;2023-12-07T17:40:29;101611.88;;;0.14;100.00
52469;BME280;38381;53.688;10.776;2023-12-07T17:45:29;101602.06;;;0.07;100.00
52469;BME280;38381;53.688;10.776;2023-12-07T17:50:30;101600.31;;;-0.07;100.00
52469;BME280;38381;53.688;10.776;2023-12-07T17:55:30;101592.06;;;-0.03;100.00
52469;BME280;38381;53.688;10.776;2023-12-07T18:00:30;101588.31;;;0.05;100.00
52469;BME280;38381;53.688;10.776;2023-12-07T18:05:31;101591.47;;;0.01;100.00
52469;BME280;38381;53.688;10.776;2023-12-07T18:10:31;101589.22;;;-0.08;100.00
52469;BME280;38381;53.688;10.776;2023-12-07T18:15:32;101579.91;;;-0.07;100.00
52469;BME280;38381;53.688;10.776;2023-12-07T18:20:32;101571.34;;;0.06;100.00
52469;BME280;38381;53.688;10.776;2023-12-07T18:25:33;101573.25;;;-0.05;100.00
52469;BME280;38381;53.688;10.776;2023-12-07T18:30:33;101566.78;;;-0.13;100.00
52469;BME280;38381;53.688;10.776;2023-12-07T18:35:33;101559.50;;;-0.07;100.00
52469;BME280;38381;53.688;10.776;2023-12-07T18:40:35;101552.66;;;-0.08;100.00
52469;BME280;38381;53.688;10.776;2023-12-07T18:45:37;101551.50;;;-0.27;100.00
52469;BME280;38381;53.688;10.776;2023-12-07T18:50:38;101548.56;;;-0.19;100.00
52469;BME280;38381;53.688;10.776;2023-12-07T18:55:41;101540.56;;;0.03;100.00
52469;BME280;38381;53.688;10.776;2023-12-07T19:00:42;101525.59;;;-0.06;100.00
52469;BME280;38381;53.688;10.776;2023-12-07T19:05:42;101523.31;;;-0.02;100.00
52469;BME280;38381;53.688;10.776;2023-12-07T19:10:43;101514.75;;;0.11;100.00
52469;BME280;38381;53.688;10.776;2023-12-07T19:15:44;101508.94;;;-0.14;100.00
52469;BME280;38381;53.688;10.776;2023-12-07T19:20:45;101518.25;;;-0.15;100.00
52469;BME280;38381;53.688;10.776;2023-12-07T19:25:47;101514.59;;;-0.05;100.00
52469;BME280;38381;53.688;10.776;2023-12-07T19:30:47;101516.97;;;-0.08;100.00
52469;BME280;38381;53.688;10.776;2023-12-07T19:35:48;101514.22;;;-0.11;100.00
52469;BME280;38381;53.688;10.776;2023-12-07T19:40:48;101522.69;;;-0.26;100.00
52469;BME280;38381;53.688;10.776;2023-12-07T19:45:49;101518.38;;;-0.27;100.00
52469;BME280;38381;53.688;10.776;2023-12-07T19:50:49;101519.84;;;-0.30;100.00
52469;BME280;38381;53.688;10.776;2023-12-07T19:55:49;101522.00;;;-0.36;100.00
52469;BME280;38381;53.688;10.776;2023-12-07T20:00:50;101527.38;;;-0.32;100.00
52469;BME280;38381;53.688;10.776;2023-12-07T20:05:50;101524.47;;;-0.25;100.00
52469;BME280;38381;53.688;10.776;2023-12-07T20:10:51;101530.09;;;-0.15;100.00
52469;BME280;38381;53.688;10.776;2023-12-07T20:15:51;101527.94;;;-0.09;100.00
52469;BME280;38381;53.688;10.776;2023-12-07T20:20:52;101528.63;;;-0.12;100.00
52469;BME280;38381;53.688;10.776;2023-12-07T20:25:52;101528.91;;;-0.07;100.00
52469;BME280;38381;53.688;10.776;2023-12-07T20:30:53;101536.94;;;-0.01;100.00
52469;BME280;38381;53.688;10.776;2023-12-07T20:35:53;101529.66;;;0.05;100.00
52469;BME280;38381;53.688;10.776;2023-12-07T20:40:53;101527.13;;;0.05;100.00
52469;BME280;38381;53.688;10.776;2023-12-07T20:45:54;101514.75;;;0.11;100.00
52469;BME280;38381;53.688;10.776;2023-12-07T20:50:54;101508.72;;;-0.04;100.00
52469;BME280;38381;53.688;10.776;2023-12-07T20:55:55;101517.75;;;0.19;100.00
52469;BME280;38381;53.688;10.776;2023-12-07T21:00:55;101511.41;;;0.12;100.00
52469;BME280;38381;53.688;10.776;2023-12-07T21:05:56;101506.72;;;0.05;100.00
52469;BME280;38381;53.688;10.776;2023-12-07T21:10:56;101504.41;;;0.23;100.00
52469;BME280;38381;53.688;10.776;2023-12-07T21:15:58;101491.69;;;0.10;100.00
52469;BME280;38381;53.688;10.776;2023-12-07T21:20:59;101497.09;;;0.14;100.00
52469;BME280;38381;53.688;10.776;2023-12-07T21:25:59;101477.78;;;0.05;100.00
52469;BME280;38381;53.688;10.776;2023-12-07T21:31:00;101461.38;;;0.14;100.00
52469;BME280;38381;53.688;10.776;2023-12-07T21:36:01;101441.88;;;0.30;100.00
52469;BME280;38381;53.688;10.776;2023-12-07T21:41:01;101444.06;;;0.38;100.00
52469;BME280;38381;53.688;10.776;2023-12-07T21:46:02;101433.91;;;0.53;100.00
52469;BME280;38381;53.688;10.776;2023-12-07T21:51:03;101426.41;;;0.56;100.00
52469;BME280;38381;53.688;10.776;2023-12-07T21:56:04;101425.28;;;0.51;100.00
52469;BME280;38381;53.688;10.776;2023-12-07T22:01:07;101417.16;;;0.44;100.00
52469;BME280;38381;53.688;10.776;2023-12-07T22:06:07;101417.00;;;0.55;100.00
52469;BME280;38381;53.688;10.776;2023-12-07T22:11:08;101410.13;;;0.54;100.00
52469;BME280;38381;53.688;10.776;2023-12-07T22:16:08;101410.28;;;0.43;100.00
52469;BME280;38381;53.688;10.776;2023-12-07T22:21:09;101405.56;;;0.64;100.00
52469;BME280;38381;53.688;10.776;2023-12-07T22:26:10;101396.22;;;0.49;100.00
52469;BME280;38381;53.688;10.776;2023-12-07T22:31:11;101396.41;;;0.23;100.00
52469;BME280;38381;53.688;10.776;2023-12-07T22:36:14;101394.97;;;0.28;100.00
52469;BME280;38381;53.688;10.776;2023-12-07T22:41:15;101392.78;;;0.19;100.00
52469;BME280;38381;53.688;10.776;2023-12-07T22:46:15;101390.94;;;0.31;100.00
52469;BME280;38381;53.688;10.776;2023-12-07T22:51:16;101391.03;;;0.33;100.00
52469;BME280;38381;53.688;10.776;2023-12-07T22:56:16;101383.19;;;0.30;100.00
52469;BME280;38381;53.688;10.776;2023-12-07T23:01:17;101369.47;;;0.57;100.00
52469;BME280;38381;53.688;10.776;2023-12-07T23:06:17;101368.69;;;0.44;100.00
52469;BME280;38381;53.688;10.776;2023-12-07T23:11:17;101370.63;;;0.33;100.00
52469;BME280;38381;53.688;10.776;2023-12-07T23:16:18;101372.28;;;0.47;100.00
52469;BME280;38381;53.688;10.776;2023-12-07T23:21:20;101368.31;;;0.52;100.00
52469;BME280;38381;53.688;10.776;2023-12-07T23:26:20;101363.75;;;0.62;100.00
52469;BME280;38381;53.688;10.776;2023-12-07T23:31:21;101343.03;;;0.72;100.00
52469;BME280;38381;53.688;10.776;2023-12-07T23:36:21;101357.28;;;0.83;100.00
52469;BME280;38381;53.688;10.776;2023-12-07T23:41:22;101365.41;;;0.76;100.00
52469;BME280;38381;53.688;10.776;2023-12-07T23:46:22;101356.84;;;0.75;100.00
52469;BME280;38381;53.688;10.776;2023-12-07T23:51:23;101333.53;;;0.69;100.00
52469;BME280;38381;53.688;10.776;2023-12-07T23:56:24;101319.97;;;0.70;100.00
